sensor_id;sensor_type;location;lat;lon;timestamp;pressure;altitude;pressure_sealevel;temperature;humidity
66547;BME280;53400;50.364;14.874;2023-04-02T00:01:49;97621.88;;;7.98;100.00
66547;BME280;53400;50.364;14.874;2023-04-02T00:04:21;97624.72;;;7.86;100.00
66547;BME280;53400;50.364;14.874;2023-04-02T00:06:49;97624.50;;;7.93;100.00
66547;BME280;53400;50.364;14.874;2023-04-02T00:09:39;97625.56;;;7.92;100.00
66547;BME280;53400;50.364;14.874;2023-04-02T00:12:14;97633.78;;;7.85;100.00
66547;BME280;53400;50.364;14.874;2023-04-02T00:14:46;97639.41;;;7.89;100.00
66547;BME280;53400;50.364;14.874;2023-04-02T00:17:13;97634.41;;;7.97;100.00
66547;BME280;53400;50.364;14.874;2023-04-02T00:19:44;97647.75;;;7.97;100.00
66547;BME280;53400;50.364;14.874;2023-04-02T00:22:15;97635.47;;;7.96;100.00
66547;BME280;53400;50.364;14.874;2023-04-02T00:24:41;97642.09;;;7.94;100.00
66547;BME280;53400;50.364;14.874;2023-04-02T00:27:10;97638.78;;;7.81;100.00
66547;BME280;53400;50.364;14.874;2023-04-02T00:29:44;97640.00;;;7.96;100.00
66547;BME280;53400;50.364;14.874;2023-04-02T00:32:10;97637.88;;;7.98;100.00
66547;BME280;53400;50.364;14.874;2023-04-02T00:34:43;97645.38;;;8.01;100.00
66547;BME280;53400;50.364;14.874;2023-04-02T00:37:15;97648.78;;;7.96;100.00
66547;BME280;53400;50.364;14.874;2023-04-02T00:39:43;97655.38;;;7.89;100.00
66547;BME280;53400;50.364;14.874;2023-04-02T00:42:11;97647.91;;;7.86;100.00
66547;BME280;53400;50.364;14.874;2023-04-02T00:44:39;97652.47;;;7.90;100.00
66547;BME280;53400;50.364;14.874;2023-04-02T00:47:13;97654.25;;;7.85;100.00
66547;BME280;53400;50.364;14.874;2023-04-02T00:49:43;97661.25;;;7.91;100.00
66547;BME280;53400;50.364;14.874;2023-04-02T00:52:11;97655.75;;;7.75;100.00
66547;BME280;53400;50.364;14.874;2023-04-02T00:54:41;97661.38;;;8.01;100.00
66547;BME280;53400;50.364;14.874;2023-04-02T00:57:15;97661.81;;;7.93;100.00
66547;BME280;53400;50.364;14.874;2023-04-02T00:59:51;97664.91;;;7.79;100.00
66547;BME280;53400;50.364;14.874;2023-04-02T01:02:29;97655.53;;;7.77;100.00
66547;BME280;53400;50.364;14.874;2023-04-02T01:04:58;97662.06;;;8.18;100.00
66547;BME280;53400;50.364;14.874;2023-04-02T01:07:42;97665.72;;;8.07;100.00
66547;BME280;53400;50.364;14.874;2023-04-02T01:10:27;97669.03;;;8.19;100.00
66547;BME280;53400;50.364;14.874;2023-04-02T01:13:04;97674.00;;;8.38;100.00
66547;BME280;53400;50.364;14.874;2023-04-02T01:15:37;97677.69;;;8.64;100.00
66547;BME280;53400;50.364;14.874;2023-04-02T01:18:20;97676.72;;;8.43;100.00
66547;BME280;53400;50.364;14.874;2023-04-02T01:21:20;97672.53;;;8.25;100.00
66547;BME280;53400;50.364;14.874;2023-04-02T01:23:59;97678.25;;;7.85;100.00
66547;BME280;53400;50.364;14.874;2023-04-02T01:26:51;97678.41;;;8.27;100.00
66547;BME280;53400;50.364;14.874;2023-04-02T01:29:21;97685.56;;;8.21;100.00
66547;BME280;53400;50.364;14.874;2023-04-02T01:31:48;97691.44;;;8.23;100.00
66547;BME280;53400;50.364;14.874;2023-04-02T01:34:18;97688.78;;;8.23;100.00
66547;BME280;53400;50.364;14.874;2023-04-02T01:36:53;97698.31;;;8.14;100.00
66547;BME280;53400;50.364;14.874;2023-04-02T01:39:32;97692.47;;;8.17;100.00
66547;BME280;53400;50.364;14.874;2023-04-02T01:42:11;97694.03;;;8.13;100.00
66547;BME280;53400;50.364;14.874;2023-04-02T01:44:43;97690.66;;;8.23;100.00
66547;BME280;53400;50.364;14.874;2023-04-02T01:47:13;97695.84;;;8.35;100.00
66547;BME280;53400;50.364;14.874;2023-04-02T01:49:41;97705.94;;;8.60;100.00
66547;BME280;53400;50.364;14.874;2023-04-02T01:52:08;97703.22;;;8.55;100.00
66547;BME280;53400;50.364;14.874;2023-04-02T01:54:39;97704.09;;;8.60;100.00
66547;BME280;53400;50.364;14.874;2023-04-02T01:57:07;97705.03;;;8.49;100.00
66547;BME280;53400;50.364;14.874;2023-04-02T01:59:33;97709.56;;;8.43;100.00
66547;BME280;53400;50.364;14.874;2023-04-02T02:02:02;97709.38;;;8.28;100.00
66547;BME280;53400;50.364;14.874;2023-04-02T02:04:30;97715.16;;;8.20;100.00
66547;BME280;53400;50.364;14.874;2023-04-02T02:06:57;97716.75;;;8.21;100.00
66547;BME280;53400;50.364;14.874;2023-04-02T02:09:27;97716.38;;;8.34;100.00
66547;BME280;53400;50.364;14.874;2023-04-02T02:11:56;97726.22;;;8.34;100.00
66547;BME280;53400;50.364;14.874;2023-04-02T02:14:27;97723.81;;;8.32;100.00
66547;BME280;53400;50.364;14.874;2023-04-02T02:16:55;97717.28;;;8.45;100.00
66547;BME280;53400;50.364;14.874;2023-04-02T02:19:27;97713.66;;;8.29;100.00
66547;BME280;53400;50.364;14.874;2023-04-02T02:21:56;97722.84;;;8.38;100.00
66547;BME280;53400;50.364;14.874;2023-04-02T02:24:26;97722.50;;;8.08;100.00
66547;BME280;53400;50.364;14.874;2023-04-02T02:27:04;97722.81;;;8.11;100.00
66547;BME280;53400;50.364;14.874;2023-04-02T02:29:36;97729.22;;;8.10;100.00
66547;BME280;53400;50.364;14.874;2023-04-02T02:32:03;97732.19;;;7.92;100.00
66547;BME280;53400;50.364;14.874;2023-04-02T02:34:36;97731.81;;;8.05;100.00
66547;BME280;53400;50.364;14.874;2023-04-02T02:37:05;97733.09;;;8.02;100.00
66547;BME280;53400;50.364;14.874;2023-04-02T02:39:39;97738.56;;;8.13;100.00
66547;BME280;53400;50.364;14.874;2023-04-02T02:42:09;97741.75;;;8.10;100.00
66547;BME280;53400;50.364;14.874;2023-04-02T02:44:43;97750.03;;;8.13;100.00
66547;BME280;53400;50.364;14.874;2023-04-02T02:47:13;97749.69;;;8.04;100.00
66547;BME280;53400;50.364;14.874;2023-04-02T02:49:43;97749.38;;;8.01;100.00
66547;BME280;53400;50.364;14.874;2023-04-02T02:52:15;97756.19;;;7.92;100.00
66547;BME280;53400;50.364;14.874;2023-04-02T02:54:44;97754.94;;;7.77;100.00
66547;BME280;53400;50.364;14.874;2023-04-02T02:57:14;97749.66;;;7.61;100.00
66547;BME280;53400;50.364;14.874;2023-04-02T02:59:42;97761.00;;;7.73;100.00
66547;BME280;53400;50.364;14.874;2023-04-02T03:02:09;97756.34;;;7.63;100.00
66547;BME280;53400;50.364;14.874;2023-04-02T03:04:36;97763.91;;;7.49;100.00
66547;BME280;53400;50.364;14.874;2023-04-02T03:07:04;97768.94;;;7.46;100.00
66547;BME280;53400;50.364;14.874;2023-04-02T03:09:38;97775.47;;;7.38;100.00
66547;BME280;53400;50.364;14.874;2023-04-02T03:12:15;97770.28;;;7.09;100.00
66547;BME280;53400;50.364;14.874;2023-04-02T03:14:52;97776.41;;;7.10;100.00
66547;BME280;53400;50.364;14.874;2023-04-02T03:17:25;97780.66;;;7.11;100.00
66547;BME280;53400;50.364;14.874;2023-04-02T03:19:57;97787.22;;;7.03;100.00
66547;BME280;53400;50.364;14.874;2023-04-02T03:22:30;97786.81;;;6.95;100.00
66547;BME280;53400;50.364;14.874;2023-04-02T03:25:03;97791.34;;;6.94;100.00
66547;BME280;53400;50.364;14.874;2023-04-02T03:27:33;97792.91;;;6.78;100.00
66547;BME280;53400;50.364;14.874;2023-04-02T03:30:09;97807.06;;;6.79;100.00
66547;BME280;53400;50.364;14.874;2023-04-02T03:32:43;97809.22;;;6.82;100.00
66547;BME280;53400;50.364;14.874;2023-04-02T03:35:18;97809.28;;;6.70;100.00
66547;BME280;53400;50.364;14.874;2023-04-02T03:37:51;97820.97;;;6.69;100.00
66547;BME280;53400;50.364;14.874;2023-04-02T03:40:23;97826.06;;;6.71;100.00
66547;BME280;53400;50.364;14.874;2023-04-02T03:42:54;97825.47;;;6.69;100.00
66547;BME280;53400;50.364;14.874;2023-04-02T03:45:24;97831.31;;;6.54;100.00
66547;BME280;53400;50.364;14.874;2023-04-02T03:47:54;97832.06;;;6.49;100.00
66547;BME280;53400;50.364;14.874;2023-04-02T03:50:25;97835.09;;;6.41;100.00
66547;BME280;53400;50.364;14.874;2023-04-02T03:52:55;97840.88;;;6.38;100.00
66547;BME280;53400;50.364;14.874;2023-04-02T03:55:24;97845.41;;;6.37;100.00
66547;BME280;53400;50.364;14.874;2023-04-02T03:57:58;97848.44;;;6.17;100.00
66547;BME280;53400;50.364;14.874;2023-04-02T04:00:31;97851.56;;;6.14;100.00
66547;BME280;53400;50.364;14.874;2023-04-02T04:03:04;97863.97;;;6.09;100.00
66547;BME280;53400;50.364;14.874;2023-04-02T04:05:36;97865.00;;;6.08;100.00
66547;BME280;53400;50.364;14.874;2023-04-02T04:08:07;97862.22;;;6.14;100.00
66547;BME280;53400;50.364;14.874;2023-04-02T04:10:38;97870.09;;;6.09;100.00
66547;BME280;53400;50.364;14.874;2023-04-02T04:13:08;97883.94;;;6.11;100.00
66547;BME280;53400;50.364;14.874;2023-04-02T04:15:38;97884.41;;;6.08;100.00
66547;BME280;53400;50.364;14.874;2023-04-02T04:18:10;97886.88;;;5.98;100.00
66547;BME280;53400;50.364;14.874;2023-04-02T04:20:41;97902.00;;;5.97;100.00
66547;BME280;53400;50.364;14.874;2023-04-02T04:23:17;97898.09;;;6.00;100.00
66547;BME280;53400;50.364;14.874;2023-04-02T04:25:45;97908.09;;;5.86;100.00
66547;BME280;53400;50.364;14.874;2023-04-02T04:28:20;97910.63;;;5.81;100.00
66547;BME280;53400;50.364;14.874;2023-04-02T04:30:51;97916.06;;;5.74;100.00
66547;BME280;53400;50.364;14.874;2023-04-02T04:33:26;97918.50;;;5.52;100.00
66547;BME280;53400;50.364;14.874;2023-04-02T04:35:55;97916.63;;;5.53;100.00
66547;BME280;53400;50.364;14.874;2023-04-02T04:38:30;97919.28;;;5.41;100.00
66547;BME280;53400;50.364;14.874;2023-04-02T04:41:02;97933.00;;;5.38;100.00
66547;BME280;53400;50.364;14.874;2023-04-02T04:43:33;97935.91;;;5.37;100.00
66547;BME280;53400;50.364;14.874;2023-04-02T04:46:05;97939.56;;;5.24;100.00
66547;BME280;53400;50.364;14.874;2023-04-02T04:48:35;97945.56;;;5.19;100.00
66547;BME280;53400;50.364;14.874;2023-04-02T04:51:06;97942.22;;;5.24;100.00
66547;BME280;53400;50.364;14.874;2023-04-02T04:53:43;97961.25;;;5.21;100.00
66547;BME280;53400;50.364;14.874;2023-04-02T04:56:10;97960.09;;;5.17;100.00
66547;BME280;53400;50.364;14.874;2023-04-02T04:58:41;97960.88;;;5.05;100.00
66547;BME280;53400;50.364;14.874;2023-04-02T05:01:12;97968.09;;;4.98;100.00
66547;BME280;53400;50.364;14.874;2023-04-02T05:03:45;97966.03;;;5.00;100.00
66547;BME280;53400;50.364;14.874;2023-04-02T05:06:25;97972.59;;;4.98;100.00
66547;BME280;53400;50.364;14.874;2023-04-02T05:09:00;97979.31;;;5.00;100.00
66547;BME280;53400;50.364;14.874;2023-04-02T05:11:31;97990.22;;;4.92;100.00
66547;BME280;53400;50.364;14.874;2023-04-02T05:14:02;97988.56;;;4.79;100.00
66547;BME280;53400;50.364;14.874;2023-04-02T05:16:37;97987.03;;;4.72;100.00
66547;BME280;53400;50.364;14.874;2023-04-02T05:19:09;97992.25;;;4.78;100.00
66547;BME280;53400;50.364;14.874;2023-04-02T05:21:42;98000.06;;;4.73;100.00
66547;BME280;53400;50.364;14.874;2023-04-02T05:26:59;98011.38;;;4.62;100.00
66547;BME280;53400;50.364;14.874;2023-04-02T05:29:29;98009.63;;;4.56;100.00
66547;BME280;53400;50.364;14.874;2023-04-02T05:32:01;98029.44;;;4.53;100.00
66547;BME280;53400;50.364;14.874;2023-04-02T05:34:31;98023.19;;;4.48;100.00
66547;BME280;53400;50.364;14.874;2023-04-02T05:36:58;98029.44;;;4.53;100.00
66547;BME280;53400;50.364;14.874;2023-04-02T05:39:26;98035.50;;;4.42;100.00
66547;BME280;53400;50.364;14.874;2023-04-02T05:41:59;98047.63;;;4.50;100.00
66547;BME280;53400;50.364;14.874;2023-04-02T05:44:28;98046.28;;;4.41;100.00
66547;BME280;53400;50.364;14.874;2023-04-02T05:46:58;98054.31;;;4.34;100.00
66547;BME280;53400;50.364;14.874;2023-04-02T05:49:27;98058.75;;;4.40;100.00
66547;BME280;53400;50.364;14.874;2023-04-02T05:51:58;98062.16;;;4.22;100.00
66547;BME280;53400;50.364;14.874;2023-04-02T05:54:29;98064.44;;;4.19;100.00
66547;BME280;53400;50.364;14.874;2023-04-02T05:57:02;98069.97;;;4.17;100.00
66547;BME280;53400;50.364;14.874;2023-04-02T05:59:32;98070.28;;;4.27;100.00
66547;BME280;53400;50.364;14.874;2023-04-02T06:02:04;98067.28;;;4.24;100.00
66547;BME280;53400;50.364;14.874;2023-04-02T06:04:35;98073.97;;;4.26;100.00
66547;BME280;53400;50.364;14.874;2023-04-02T06:07:09;98081.03;;;4.14;100.00
66547;BME280;53400;50.364;14.874;2023-04-02T06:09:39;98090.63;;;4.08;100.00
66547;BME280;53400;50.364;14.874;2023-04-02T06:12:16;98083.81;;;4.19;100.00
66547;BME280;53400;50.364;14.874;2023-04-02T06:14:43;98102.00;;;4.16;100.00
66547;BME280;53400;50.364;14.874;2023-04-02T06:17:12;98100.56;;;4.13;100.00
66547;BME280;53400;50.364;14.874;2023-04-02T06:19:38;98102.09;;;4.02;100.00
66547;BME280;53400;50.364;14.874;2023-04-02T06:22:15;98112.41;;;4.10;100.00
66547;BME280;53400;50.364;14.874;2023-04-02T06:24:44;98112.22;;;4.12;100.00
66547;BME280;53400;50.364;14.874;2023-04-02T06:27:15;98118.97;;;4.08;100.00
66547;BME280;53400;50.364;14.874;2023-04-02T06:29:46;98122.22;;;4.10;100.00
66547;BME280;53400;50.364;14.874;2023-04-02T06:32:18;98137.69;;;4.13;100.00
66547;BME280;53400;50.364;14.874;2023-04-02T06:34:47;98132.06;;;4.03;100.00
66547;BME280;53400;50.364;14.874;2023-04-02T06:37:18;98129.72;;;4.13;100.00
66547;BME280;53400;50.364;14.874;2023-04-02T06:39:45;98145.06;;;4.04;100.00
66547;BME280;53400;50.364;14.874;2023-04-02T06:42:15;98133.34;;;4.19;100.00
66547;BME280;53400;50.364;14.874;2023-04-02T06:44:42;98154.66;;;4.05;100.00
66547;BME280;53400;50.364;14.874;2023-04-02T06:47:15;98157.94;;;4.01;100.00
66547;BME280;53400;50.364;14.874;2023-04-02T06:49:46;98163.72;;;3.91;100.00
66547;BME280;53400;50.364;14.874;2023-04-02T06:52:20;98168.16;;;3.97;100.00
66547;BME280;53400;50.364;14.874;2023-04-02T06:54:48;98179.94;;;4.08;100.00
66547;BME280;53400;50.364;14.874;2023-04-02T06:57:16;98184.81;;;4.04;100.00
66547;BME280;53400;50.364;14.874;2023-04-02T06:59:42;98185.69;;;3.98;100.00
66547;BME280;53400;50.364;14.874;2023-04-02T07:02:21;98202.19;;;4.00;100.00
66547;BME280;53400;50.364;14.874;2023-04-02T07:04:49;98210.50;;;4.04;98.38
66547;BME280;53400;50.364;14.874;2023-04-02T07:07:16;98226.41;;;4.04;97.67
66547;BME280;53400;50.364;14.874;2023-04-02T07:09:41;98219.47;;;4.09;96.65
66547;BME280;53400;50.364;14.874;2023-04-02T07:12:10;98214.59;;;4.06;96.79
66547;BME280;53400;50.364;14.874;2023-04-02T07:14:38;98251.69;;;4.06;98.58
66547;BME280;53400;50.364;14.874;2023-04-02T07:17:04;98226.00;;;4.07;98.28
66547;BME280;53400;50.364;14.874;2023-04-02T07:19:29;98242.28;;;4.10;97.16
66547;BME280;53400;50.364;14.874;2023-04-02T07:21:56;98249.56;;;4.22;97.69
66547;BME280;53400;50.364;14.874;2023-04-02T07:24:22;98249.63;;;4.08;96.37
66547;BME280;53400;50.364;14.874;2023-04-02T07:26:48;98255.66;;;4.22;96.31
66547;BME280;53400;50.364;14.874;2023-04-02T07:29:15;98264.19;;;4.31;95.75
66547;BME280;53400;50.364;14.874;2023-04-02T07:31:43;98265.06;;;4.50;94.68
66547;BME280;53400;50.364;14.874;2023-04-02T07:34:09;98273.75;;;4.39;94.32
66547;BME280;53400;50.364;14.874;2023-04-02T07:36:35;98277.34;;;4.44;94.17
66547;BME280;53400;50.364;14.874;2023-04-02T07:39:01;98288.38;;;4.48;94.96
66547;BME280;53400;50.364;14.874;2023-04-02T07:41:27;98292.66;;;4.74;95.39
66547;BME280;53400;50.364;14.874;2023-04-02T07:43:53;98285.84;;;5.10;92.56
66547;BME280;53400;50.364;14.874;2023-04-02T07:46:19;98292.72;;;5.42;92.93
66547;BME280;53400;50.364;14.874;2023-04-02T07:48:47;98299.81;;;5.85;91.99
66547;BME280;53400;50.364;14.874;2023-04-02T07:51:15;98293.81;;;5.71;88.53
66547;BME280;53400;50.364;14.874;2023-04-02T07:53:41;98305.19;;;5.79;87.79
66547;BME280;53400;50.364;14.874;2023-04-02T07:56:12;98312.41;;;5.71;87.21
66547;BME280;53400;50.364;14.874;2023-04-02T07:58:38;98318.16;;;5.68;88.09
66547;BME280;53400;50.364;14.874;2023-04-02T08:01:17;98325.06;;;5.76;85.29
66547;BME280;53400;50.364;14.874;2023-04-02T08:03:43;98334.91;;;5.94;87.05
66547;BME280;53400;50.364;14.874;2023-04-02T08:06:11;98334.44;;;5.79;86.15
66547;BME280;53400;50.364;14.874;2023-04-02T08:08:37;98345.53;;;5.50;85.94
66547;BME280;53400;50.364;14.874;2023-04-02T08:11:04;98343.13;;;5.67;86.07
66547;BME280;53400;50.364;14.874;2023-04-02T08:13:30;98339.81;;;5.90;84.62
66547;BME280;53400;50.364;14.874;2023-04-02T08:15:57;98340.31;;;6.36;nan
66547;BME280;53400;50.364;14.874;2023-04-02T08:18:23;98350.59;;;6.32;83.78
66547;BME280;53400;50.364;14.874;2023-04-02T08:20:49;98354.00;;;6.39;83.71
66547;BME280;53400;50.364;14.874;2023-04-02T08:23:18;98364.22;;;6.24;83.20
66547;BME280;53400;50.364;14.874;2023-04-02T08:25:45;98359.59;;;6.50;82.85
66547;BME280;53400;50.364;14.874;2023-04-02T08:28:11;98371.19;;;6.55;80.93
66547;BME280;53400;50.364;14.874;2023-04-02T08:30:44;98368.03;;;6.77;82.65
66547;BME280;53400;50.364;14.874;2023-04-02T08:33:11;98364.59;;;6.88;81.12
66547;BME280;53400;50.364;14.874;2023-04-02T08:35:37;98386.84;;;6.63;80.09
66547;BME280;53400;50.364;14.874;2023-04-02T08:38:02;98384.47;;;6.55;80.03
66547;BME280;53400;50.364;14.874;2023-04-02T08:40:33;98395.13;;;6.55;79.71
66547;BME280;53400;50.364;14.874;2023-04-02T08:46:03;98385.75;;;6.53;79.91
66547;BME280;53400;50.364;14.874;2023-04-02T08:48:34;98388.84;;;6.50;79.26
66547;BME280;53400;50.364;14.874;2023-04-02T08:51:04;98400.66;;;6.54;79.70
66547;BME280;53400;50.364;14.874;2023-04-02T08:53:33;98401.69;;;6.53;79.40
66547;BME280;53400;50.364;14.874;2023-04-02T08:56:08;98401.78;;;6.46;79.95
66547;BME280;53400;50.364;14.874;2023-04-02T08:58:38;98429.47;;;6.57;78.53
66547;BME280;53400;50.364;14.874;2023-04-02T09:01:17;98417.69;;;6.34;79.32
66547;BME280;53400;50.364;14.874;2023-04-02T09:03:46;98418.03;;;6.19;79.96
66547;BME280;53400;50.364;14.874;2023-04-02T09:06:16;98428.03;;;6.42;80.05
66547;BME280;53400;50.364;14.874;2023-04-02T09:08:44;98412.50;;;6.39;80.21
66547;BME280;53400;50.364;14.874;2023-04-02T09:11:20;98440.66;;;6.29;79.57
66547;BME280;53400;50.364;14.874;2023-04-02T09:13:51;98418.78;;;6.08;80.40
66547;BME280;53400;50.364;14.874;2023-04-02T09:16:25;98428.53;;;6.14;79.91
66547;BME280;53400;50.364;14.874;2023-04-02T09:18:59;98454.22;;;6.02;80.16
66547;BME280;53400;50.364;14.874;2023-04-02T09:21:32;98463.03;;;6.03;78.84
66547;BME280;53400;50.364;14.874;2023-04-02T09:23:58;98471.56;;;5.80;79.04
66547;BME280;53400;50.364;14.874;2023-04-02T09:26:28;98478.38;;;5.75;80.62
66547;BME280;53400;50.364;14.874;2023-04-02T09:29:00;98480.31;;;5.62;79.76
66547;BME280;53400;50.364;14.874;2023-04-02T09:31:31;98496.16;;;5.43;79.92
66547;BME280;53400;50.364;14.874;2023-04-02T09:33:59;98478.53;;;5.24;81.65
66547;BME280;53400;50.364;14.874;2023-04-02T09:36:33;98484.00;;;5.61;81.15
66547;BME280;53400;50.364;14.874;2023-04-02T09:39:05;98498.72;;;5.25;81.25
66547;BME280;53400;50.364;14.874;2023-04-02T09:41:34;98487.44;;;5.36;81.05
66547;BME280;53400;50.364;14.874;2023-04-02T09:44:20;98485.72;;;5.48;79.91
66547;BME280;53400;50.364;14.874;2023-04-02T09:46:51;98518.41;;;5.49;80.61
66547;BME280;53400;50.364;14.874;2023-04-02T09:49:21;98523.91;;;5.54;81.28
66547;BME280;53400;50.364;14.874;2023-04-02T09:52:05;98511.19;;;5.56;80.31
66547;BME280;53400;50.364;14.874;2023-04-02T09:54:32;98523.75;;;5.42;78.74
66547;BME280;53400;50.364;14.874;2023-04-02T09:57:00;98526.56;;;5.54;79.32
66547;BME280;53400;50.364;14.874;2023-04-02T09:59:27;98528.66;;;5.45;80.32
66547;BME280;53400;50.364;14.874;2023-04-02T10:01:58;98539.72;;;5.67;81.86
66547;BME280;53400;50.364;14.874;2023-04-02T10:04:36;98551.22;;;5.23;79.57
66547;BME280;53400;50.364;14.874;2023-04-02T10:07:29;98557.16;;;5.25;79.08
66547;BME280;53400;50.364;14.874;2023-04-02T10:09:57;98561.00;;;5.29;79.53
66547;BME280;53400;50.364;14.874;2023-04-02T10:12:29;98558.19;;;5.24;79.22
66547;BME280;53400;50.364;14.874;2023-04-02T10:15:02;98563.94;;;5.52;79.21
66547;BME280;53400;50.364;14.874;2023-04-02T10:17:34;98571.31;;;5.50;78.79
66547;BME280;53400;50.364;14.874;2023-04-02T10:20:05;98569.88;;;5.55;76.89
66547;BME280;53400;50.364;14.874;2023-04-02T10:22:36;98569.69;;;5.49;77.11
66547;BME280;53400;50.364;14.874;2023-04-02T10:25:07;98566.81;;;5.51;77.98
66547;BME280;53400;50.364;14.874;2023-04-02T10:27:44;98568.81;;;5.87;77.00
66547;BME280;53400;50.364;14.874;2023-04-02T10:30:19;98577.59;;;5.94;77.47
66547;BME280;53400;50.364;14.874;2023-04-02T10:32:51;98566.94;;;5.63;75.40
66547;BME280;53400;50.364;14.874;2023-04-02T10:35:37;98588.72;;;5.78;76.31
66547;BME280;53400;50.364;14.874;2023-04-02T10:38:40;98591.34;;;5.85;77.83
66547;BME280;53400;50.364;14.874;2023-04-02T10:41:18;98591.78;;;5.82;77.48
66547;BME280;53400;50.364;14.874;2023-04-02T10:44:16;98596.84;;;5.83;78.03
66547;BME280;53400;50.364;14.874;2023-04-02T10:46:55;98592.13;;;5.53;79.10
66547;BME280;53400;50.364;14.874;2023-04-02T10:49:31;98604.81;;;5.51;77.95
66547;BME280;53400;50.364;14.874;2023-04-02T10:52:07;98600.41;;;5.39;77.48
66547;BME280;53400;50.364;14.874;2023-04-02T10:54:40;98609.75;;;5.48;77.38
66547;BME280;53400;50.364;14.874;2023-04-02T10:57:15;98621.34;;;5.53;76.51
66547;BME280;53400;50.364;14.874;2023-04-02T10:59:53;98619.53;;;5.86;77.69
66547;BME280;53400;50.364;14.874;2023-04-02T11:02:30;98627.22;;;5.62;75.80
66547;BME280;53400;50.364;14.874;2023-04-02T11:05:01;98621.44;;;5.72;78.06
66547;BME280;53400;50.364;14.874;2023-04-02T11:07:37;98619.44;;;5.67;76.12
66547;BME280;53400;50.364;14.874;2023-04-02T11:10:10;98635.22;;;6.01;75.62
66547;BME280;53400;50.364;14.874;2023-04-02T11:12:43;98635.97;;;5.76;75.46
66547;BME280;53400;50.364;14.874;2023-04-02T11:15:16;98648.44;;;5.75;76.06
66547;BME280;53400;50.364;14.874;2023-04-02T11:17:44;98629.97;;;5.49;76.98
66547;BME280;53400;50.364;14.874;2023-04-02T11:20:54;98645.41;;;5.14;77.47
66547;BME280;53400;50.364;14.874;2023-04-02T11:23:21;98648.59;;;5.42;79.64
66547;BME280;53400;50.364;14.874;2023-04-02T11:25:48;98653.22;;;5.53;76.07
66547;BME280;53400;50.364;14.874;2023-04-02T11:28:25;98667.69;;;5.64;76.74
66547;BME280;53400;50.364;14.874;2023-04-02T11:30:55;98673.25;;;5.56;77.59
66547;BME280;53400;50.364;14.874;2023-04-02T11:33:25;98678.25;;;5.33;79.16
66547;BME280;53400;50.364;14.874;2023-04-02T11:39:11;98701.31;;;5.32;80.56
66547;BME280;53400;50.364;14.874;2023-04-02T11:44:38;98692.69;;;5.50;81.97
66547;BME280;53400;50.364;14.874;2023-04-02T11:47:20;98702.38;;;5.11;80.12
66547;BME280;53400;50.364;14.874;2023-04-02T11:52:52;98726.78;;;5.66;78.17
66547;BME280;53400;50.364;14.874;2023-04-02T11:55:29;98706.84;;;5.31;79.22
66547;BME280;53400;50.364;14.874;2023-04-02T12:04:41;98741.00;;;5.14;82.01
66547;BME280;53400;50.364;14.874;2023-04-02T12:10:15;98744.66;;;4.33;83.83
66547;BME280;53400;50.364;14.874;2023-04-02T12:12:42;98758.19;;;4.78;82.79
66547;BME280;53400;50.364;14.874;2023-04-02T12:15:37;98763.50;;;4.78;82.05
66547;BME280;53400;50.364;14.874;2023-04-02T12:18:12;98759.59;;;4.54;81.86
66547;BME280;53400;50.364;14.874;2023-04-02T12:20:46;98762.59;;;4.24;84.31
66547;BME280;53400;50.364;14.874;2023-04-02T12:23:17;98764.44;;;4.37;82.57
66547;BME280;53400;50.364;14.874;2023-04-02T12:25:52;98778.56;;;4.57;82.35
66547;BME280;53400;50.364;14.874;2023-04-02T12:28:20;98780.00;;;4.67;81.71
66547;BME280;53400;50.364;14.874;2023-04-02T12:30:48;98780.19;;;4.58;81.35
66547;BME280;53400;50.364;14.874;2023-04-02T12:33:21;98774.47;;;4.62;81.45
66547;BME280;53400;50.364;14.874;2023-04-02T12:35:57;98777.94;;;4.62;82.92
66547;BME280;53400;50.364;14.874;2023-04-02T12:38:25;98784.47;;;4.53;81.64
66547;BME280;53400;50.364;14.874;2023-04-02T12:40:54;98773.44;;;4.49;81.99
66547;BME280;53400;50.364;14.874;2023-04-02T12:43:25;98794.88;;;4.54;81.37
66547;BME280;53400;50.364;14.874;2023-04-02T12:45:52;98803.25;;;4.51;80.88
66547;BME280;53400;50.364;14.874;2023-04-02T12:48:18;98792.66;;;4.58;79.70
66547;BME280;53400;50.364;14.874;2023-04-02T12:50:45;98790.22;;;4.63;78.57
66547;BME280;53400;50.364;14.874;2023-04-02T12:53:18;98784.69;;;4.71;78.16
66547;BME280;53400;50.364;14.874;2023-04-02T12:55:47;98788.19;;;4.85;77.64
66547;BME280;53400;50.364;14.874;2023-04-02T12:58:25;98785.13;;;5.15;77.63
66547;BME280;53400;50.364;14.874;2023-04-02T13:01:02;98796.75;;;5.00;76.54
66547;BME280;53400;50.364;14.874;2023-04-02T13:03:35;98810.25;;;5.05;76.66
66547;BME280;53400;50.364;14.874;2023-04-02T13:06:02;98805.91;;;4.71;77.76
66547;BME280;53400;50.364;14.874;2023-04-02T13:08:35;98804.25;;;4.50;78.81
66547;BME280;53400;50.364;14.874;2023-04-02T13:11:05;98820.03;;;4.85;78.26
66547;BME280;53400;50.364;14.874;2023-04-02T13:13:33;98818.00;;;4.87;79.49
66547;BME280;53400;50.364;14.874;2023-04-02T13:16:06;98824.13;;;4.94;78.89
66547;BME280;53400;50.364;14.874;2023-04-02T13:18:35;98826.56;;;5.09;79.21
66547;BME280;53400;50.364;14.874;2023-04-02T13:21:02;98847.38;;;4.86;79.77
66547;BME280;53400;50.364;14.874;2023-04-02T13:23:35;98832.25;;;4.73;79.80
66547;BME280;53400;50.364;14.874;2023-04-02T13:26:10;98871.78;;;4.48;80.21
66547;BME280;53400;50.364;14.874;2023-04-02T13:28:41;98843.59;;;4.40;80.59
66547;BME280;53400;50.364;14.874;2023-04-02T13:31:13;98842.00;;;4.52;81.08
66547;BME280;53400;50.364;14.874;2023-04-02T13:33:39;98844.69;;;4.66;80.25
66547;BME280;53400;50.364;14.874;2023-04-02T13:36:10;98839.00;;;4.69;81.32
66547;BME280;53400;50.364;14.874;2023-04-02T13:38:39;98850.81;;;4.66;81.10
66547;BME280;53400;50.364;14.874;2023-04-02T13:41:05;98851.81;;;4.52;81.34
66547;BME280;53400;50.364;14.874;2023-04-02T13:43:32;98849.53;;;4.49;81.44